sensor_id;sensor_type;location;lat;lon;timestamp;P1;durP1;ratioP1;P2;durP2;ratioP2
32611;SDS011;19030;49.478;8.986;2022-09-24T00:00:41;7.53;;;4.63;;
32611;SDS011;19030;49.478;8.986;2022-09-24T00:02:43;9.02;;;4.60;;
32611;SDS011;19030;49.478;8.986;2022-09-24T00:04:43;7.93;;;4.50;;
32611;SDS011;19030;49.478;8.986;2022-09-24T00:06:45;7.55;;;4.53;;
32611;SDS011;19030;49.478;8.986;2022-09-24T00:08:47;8.73;;;4.40;;
32611;SDS011;19030;49.478;8.986;2022-09-24T00:10:49;8.63;;;4.70;;
32611;SDS011;19030;49.478;8.986;2022-09-24T00:12:49;11.82;;;4.72;;
32611;SDS011;19030;49.478;8.986;2022-09-24T00:14:51;9.20;;;4.60;;
32611;SDS011;19030;49.478;8.986;2022-09-24T00:16:51;9.48;;;4.90;;
32611;SDS011;19030;49.478;8.986;2022-09-24T00:18:52;9.68;;;6.10;;
32611;SDS011;19030;49.478;8.986;2022-09-24T00:20:54;9.07;;;4.80;;
32611;SDS011;19030;49.478;8.986;2022-09-24T00:22:55;9.43;;;4.60;;
32611;SDS011;19030;49.478;8.986;2022-09-24T00:24:55;9.82;;;4.50;;
32611;SDS011;19030;49.478;8.986;2022-09-24T00:27:22;7.53;;;4.28;;
32611;SDS011;19030;49.478;8.986;2022-09-24T00:29:23;8.27;;;4.63;;
32611;SDS011;19030;49.478;8.986;2022-09-24T00:31:24;7.68;;;4.70;;
32611;SDS011;19030;49.478;8.986;2022-09-24T00:33:25;9.10;;;4.40;;
32611;SDS011;19030;49.478;8.986;2022-09-24T00:35:31;8.48;;;5.10;;
32611;SDS011;19030;49.478;8.986;2022-09-24T00:37:35;8.65;;;4.63;;
32611;SDS011;19030;49.478;8.986;2022-09-24T00:39:35;7.63;;;4.90;;
32611;SDS011;19030;49.478;8.986;2022-09-24T00:41:36;7.20;;;4.72;;
32611;SDS011;19030;49.478;8.986;2022-09-24T00:43:38;9.60;;;4.32;;
32611;SDS011;19030;49.478;8.986;2022-09-24T00:45:38;7.13;;;4.45;;
32611;SDS011;19030;49.478;8.986;2022-09-24T00:47:41;11.32;;;5.00;;
32611;SDS011;19030;49.478;8.986;2022-09-24T00:49:43;7.68;;;4.75;;
32611;SDS011;19030;49.478;8.986;2022-09-24T00:51:48;6.68;;;4.32;;
32611;SDS011;19030;49.478;8.986;2022-09-24T00:53:51;6.78;;;4.20;;
32611;SDS011;19030;49.478;8.986;2022-09-24T00:55:55;9.77;;;4.85;;
32611;SDS011;19030;49.478;8.986;2022-09-24T00:57:57;8.27;;;4.38;;
32611;SDS011;19030;49.478;8.986;2022-09-24T01:00:00;7.90;;;4.63;;
32611;SDS011;19030;49.478;8.986;2022-09-24T01:02:01;7.57;;;4.63;;
32611;SDS011;19030;49.478;8.986;2022-09-24T01:04:04;9.15;;;4.80;;
32611;SDS011;19030;49.478;8.986;2022-09-24T01:06:06;7.28;;;4.15;;
32611;SDS011;19030;49.478;8.986;2022-09-24T01:08:15;8.00;;;4.45;;
32611;SDS011;19030;49.478;8.986;2022-09-24T01:10:16;7.63;;;4.90;;
32611;SDS011;19030;49.478;8.986;2022-09-24T01:12:45;7.55;;;4.18;;
32611;SDS011;19030;49.478;8.986;2022-09-24T01:27:41;7.53;;;5.13;;
32611;SDS011;19030;49.478;8.986;2022-09-24T01:29:49;10.07;;;4.88;;
32611;SDS011;19030;49.478;8.986;2022-09-24T01:34:20;7.60;;;4.57;;
32611;SDS011;19030;49.478;8.986;2022-09-24T01:36:26;9.27;;;5.50;;
32611;SDS011;19030;49.478;8.986;2022-09-24T01:38:29;7.68;;;4.80;;
32611;SDS011;19030;49.478;8.986;2022-09-24T01:40:32;10.20;;;4.85;;
32611;SDS011;19030;49.478;8.986;2022-09-24T01:42:35;8.27;;;4.57;;
32611;SDS011;19030;49.478;8.986;2022-09-24T01:44:39;8.45;;;4.47;;
32611;SDS011;19030;49.478;8.986;2022-09-24T01:46:43;7.35;;;4.55;;
32611;SDS011;19030;49.478;8.986;2022-09-24T01:48:44;7.90;;;5.05;;
32611;SDS011;19030;49.478;8.986;2022-09-24T01:50:56;8.23;;;4.82;;
32611;SDS011;19030;49.478;8.986;2022-09-24T01:53:11;7.35;;;4.65;;
32611;SDS011;19030;49.478;8.986;2022-09-24T01:55:19;7.15;;;4.53;;
32611;SDS011;19030;49.478;8.986;2022-09-24T01:57:28;7.80;;;4.70;;
32611;SDS011;19030;49.478;8.986;2022-09-24T01:59:35;6.57;;;4.50;;
32611;SDS011;19030;49.478;8.986;2022-09-24T02:01:41;7.80;;;4.90;;
32611;SDS011;19030;49.478;8.986;2022-09-24T02:03:54;9.77;;;4.68;;
32611;SDS011;19030;49.478;8.986;2022-09-24T02:05:58;8.80;;;4.82;;
32611;SDS011;19030;49.478;8.986;2022-09-24T02:08:04;8.10;;;4.70;;
32611;SDS011;19030;49.478;8.986;2022-09-24T02:10:13;7.93;;;4.80;;
32611;SDS011;19030;49.478;8.986;2022-09-24T02:12:23;7.85;;;4.97;;
32611;SDS011;19030;49.478;8.986;2022-09-24T02:14:31;8.52;;;4.80;;
32611;SDS011;19030;49.478;8.986;2022-09-24T02:16:40;8.13;;;4.38;;
32611;SDS011;19030;49.478;8.986;2022-09-24T02:18:47;6.53;;;4.25;;
32611;SDS011;19030;49.478;8.986;2022-09-24T02:20:51;9.90;;;4.75;;
32611;SDS011;19030;49.478;8.986;2022-09-24T02:22:53;11.32;;;5.68;;
32611;SDS011;19030;49.478;8.986;2022-09-24T02:24:57;10.80;;;4.97;;
32611;SDS011;19030;49.478;8.986;2022-09-24T02:27:01;7.50;;;4.60;;
32611;SDS011;19030;49.478;8.986;2022-09-24T02:29:02;7.80;;;4.70;;
32611;SDS011;19030;49.478;8.986;2022-09-24T02:31:05;8.32;;;5.15;;
32611;SDS011;19030;49.478;8.986;2022-09-24T02:33:10;7.83;;;4.70;;
32611;SDS011;19030;49.478;8.986;2022-09-24T02:35:34;9.35;;;4.78;;
32611;SDS011;19030;49.478;8.986;2022-09-24T02:37:39;7.60;;;4.55;;
32611;SDS011;19030;49.478;8.986;2022-09-24T02:39:41;7.65;;;4.53;;
32611;SDS011;19030;49.478;8.986;2022-09-24T02:41:43;7.43;;;4.53;;
32611;SDS011;19030;49.478;8.986;2022-09-24T02:43:46;7.10;;;4.30;;
32611;SDS011;19030;49.478;8.986;2022-09-24T02:45:47;12.65;;;5.07;;
32611;SDS011;19030;49.478;8.986;2022-09-24T02:47:47;8.93;;;4.80;;
32611;SDS011;19030;49.478;8.986;2022-09-24T02:49:48;7.53;;;4.65;;
32611;SDS011;19030;49.478;8.986;2022-09-24T02:51:48;7.45;;;4.10;;
32611;SDS011;19030;49.478;8.986;2022-09-24T02:53:49;7.15;;;4.70;;
32611;SDS011;19030;49.478;8.986;2022-09-24T02:55:50;8.57;;;4.68;;
32611;SDS011;19030;49.478;8.986;2022-09-24T02:57:50;7.93;;;4.95;;
32611;SDS011;19030;49.478;8.986;2022-09-24T02:59:51;8.25;;;4.95;;
32611;SDS011;19030;49.478;8.986;2022-09-24T03:01:51;9.43;;;4.75;;
32611;SDS011;19030;49.478;8.986;2022-09-24T03:03:52;6.95;;;4.65;;
32611;SDS011;19030;49.478;8.986;2022-09-24T03:05:52;8.05;;;4.88;;
32611;SDS011;19030;49.478;8.986;2022-09-24T03:07:54;7.90;;;4.78;;
32611;SDS011;19030;49.478;8.986;2022-09-24T03:09:57;7.63;;;4.40;;
32611;SDS011;19030;49.478;8.986;2022-09-24T03:11:58;8.40;;;5.10;;
32611;SDS011;19030;49.478;8.986;2022-09-24T03:13:59;7.22;;;4.60;;
32611;SDS011;19030;49.478;8.986;2022-09-24T03:16:01;7.05;;;4.55;;
32611;SDS011;19030;49.478;8.986;2022-09-24T03:18:02;8.23;;;5.10;;
32611;SDS011;19030;49.478;8.986;2022-09-24T03:20:02;9.05;;;5.20;;
32611;SDS011;19030;49.478;8.986;2022-09-24T03:22:03;9.07;;;4.80;;
32611;SDS011;19030;49.478;8.986;2022-09-24T03:24:04;10.68;;;5.30;;
32611;SDS011;19030;49.478;8.986;2022-09-24T03:26:04;7.38;;;4.65;;
32611;SDS011;19030;49.478;8.986;2022-09-24T03:28:05;8.10;;;4.78;;
32611;SDS011;19030;49.478;8.986;2022-09-24T03:30:05;9.77;;;5.10;;
32611;SDS011;19030;49.478;8.986;2022-09-24T03:32:25;8.07;;;4.60;;
32611;SDS011;19030;49.478;8.986;2022-09-24T03:34:25;8.85;;;5.13;;
32611;SDS011;19030;49.478;8.986;2022-09-24T03:36:26;8.05;;;4.72;;
32611;SDS011;19030;49.478;8.986;2022-09-24T03:38:27;7.55;;;4.38;;
32611;SDS011;19030;49.478;8.986;2022-09-24T03:40:28;8.13;;;5.10;;
32611;SDS011;19030;49.478;8.986;2022-09-24T03:42:29;7.43;;;4.60;;
32611;SDS011;19030;49.478;8.986;2022-09-24T03:44:30;7.15;;;4.75;;
32611;SDS011;19030;49.478;8.986;2022-09-24T03:46:31;7.60;;;4.75;;
32611;SDS011;19030;49.478;8.986;2022-09-24T03:48:32;8.57;;;4.88;;
32611;SDS011;19030;49.478;8.986;2022-09-24T03:50:37;8.98;;;5.20;;
32611;SDS011;19030;49.478;8.986;2022-09-24T03:52:38;7.82;;;4.93;;
32611;SDS011;19030;49.478;8.986;2022-09-24T03:54:39;7.32;;;4.65;;
32611;SDS011;19030;49.478;8.986;2022-09-24T03:56:39;8.80;;;5.00;;
32611;SDS011;19030;49.478;8.986;2022-09-24T03:58:40;9.15;;;5.38;;
32611;SDS011;19030;49.478;8.986;2022-09-24T04:00:41;9.40;;;5.30;;
32611;SDS011;19030;49.478;8.986;2022-09-24T04:02:41;9.57;;;5.65;;
32611;SDS011;19030;49.478;8.986;2022-09-24T04:04:42;10.18;;;5.28;;
32611;SDS011;19030;49.478;8.986;2022-09-24T04:06:42;8.93;;;5.47;;
32611;SDS011;19030;49.478;8.986;2022-09-24T04:08:44;7.50;;;4.90;;
32611;SDS011;19030;49.478;8.986;2022-09-24T04:10:44;7.72;;;4.80;;
32611;SDS011;19030;49.478;8.986;2022-09-24T04:12:45;8.18;;;5.28;;
32611;SDS011;19030;49.478;8.986;2022-09-24T04:14:46;8.60;;;5.40;;
32611;SDS011;19030;49.478;8.986;2022-09-24T04:16:46;9.30;;;5.32;;
32611;SDS011;19030;49.478;8.986;2022-09-24T04:18:47;8.85;;;5.10;;
32611;SDS011;19030;49.478;8.986;2022-09-24T04:20:48;9.52;;;5.05;;
32611;SDS011;19030;49.478;8.986;2022-09-24T04:22:49;7.20;;;4.88;;
32611;SDS011;19030;49.478;8.986;2022-09-24T04:24:50;7.85;;;5.03;;
32611;SDS011;19030;49.478;8.986;2022-09-24T04:26:51;7.32;;;4.78;;
32611;SDS011;19030;49.478;8.986;2022-09-24T04:28:52;8.80;;;5.00;;
32611;SDS011;19030;49.478;8.986;2022-09-24T04:30:52;8.00;;;4.93;;
32611;SDS011;19030;49.478;8.986;2022-09-24T04:32:53;7.82;;;5.35;;
32611;SDS011;19030;49.478;8.986;2022-09-24T04:34:53;7.80;;;4.80;;
32611;SDS011;19030;49.478;8.986;2022-09-24T04:36:54;6.70;;;4.38;;
32611;SDS011;19030;49.478;8.986;2022-09-24T04:38:55;8.02;;;4.75;;
32611;SDS011;19030;49.478;8.986;2022-09-24T04:41:06;7.82;;;4.80;;
32611;SDS011;19030;49.478;8.986;2022-09-24T04:43:07;11.90;;;6.32;;
32611;SDS011;19030;49.478;8.986;2022-09-24T04:45:08;7.43;;;4.80;;
32611;SDS011;19030;49.478;8.986;2022-09-24T04:47:09;7.90;;;5.20;;
32611;SDS011;19030;49.478;8.986;2022-09-24T04:49:10;7.80;;;4.88;;
32611;SDS011;19030;49.478;8.986;2022-09-24T04:51:11;10.55;;;5.10;;
32611;SDS011;19030;49.478;8.986;2022-09-24T04:53:12;8.75;;;4.80;;
32611;SDS011;19030;49.478;8.986;2022-09-24T04:55:13;8.23;;;4.63;;
32611;SDS011;19030;49.478;8.986;2022-09-24T04:57:13;8.43;;;4.78;;
32611;SDS011;19030;49.478;8.986;2022-09-24T04:59:15;7.70;;;4.97;;
32611;SDS011;19030;49.478;8.986;2022-09-24T05:01:15;8.95;;;4.97;;
32611;SDS011;19030;49.478;8.986;2022-09-24T05:03:16;7.57;;;4.65;;
32611;SDS011;19030;49.478;8.986;2022-09-24T05:05:16;8.50;;;5.22;;
32611;SDS011;19030;49.478;8.986;2022-09-24T05:07:17;8.40;;;5.25;;
32611;SDS011;19030;49.478;8.986;2022-09-24T05:09:17;8.82;;;5.43;;
32611;SDS011;19030;49.478;8.986;2022-09-24T05:11:18;7.93;;;4.97;;
32611;SDS011;19030;49.478;8.986;2022-09-24T05:13:19;8.70;;;5.07;;
32611;SDS011;19030;49.478;8.986;2022-09-24T05:15:20;10.85;;;5.38;;
32611;SDS011;19030;49.478;8.986;2022-09-24T05:17:21;7.93;;;4.68;;
32611;SDS011;19030;49.478;8.986;2022-09-24T05:19:21;8.55;;;4.97;;
32611;SDS011;19030;49.478;8.986;2022-09-24T05:21:22;8.20;;;5.20;;
32611;SDS011;19030;49.478;8.986;2022-09-24T05:23:23;10.65;;;5.20;;
32611;SDS011;19030;49.478;8.986;2022-09-24T05:25:24;7.22;;;4.75;;
32611;SDS011;19030;49.478;8.986;2022-09-24T05:27:27;7.30;;;4.72;;
32611;SDS011;19030;49.478;8.986;2022-09-24T05:29:28;9.10;;;5.30;;
32611;SDS011;19030;49.478;8.986;2022-09-24T05:31:29;9.20;;;5.10;;
32611;SDS011;19030;49.478;8.986;2022-09-24T05:33:29;10.05;;;5.63;;
32611;SDS011;19030;49.478;8.986;2022-09-24T05:35:30;9.02;;;4.47;;
32611;SDS011;19030;49.478;8.986;2022-09-24T05:37:30;9.02;;;5.00;;
32611;SDS011;19030;49.478;8.986;2022-09-24T05:39:31;11.35;;;5.18;;
32611;SDS011;19030;49.478;8.986;2022-09-24T05:41:31;10.32;;;4.70;;
32611;SDS011;19030;49.478;8.986;2022-09-24T05:43:32;8.88;;;4.70;;
32611;SDS011;19030;49.478;8.986;2022-09-24T05:45:32;7.90;;;4.60;;
32611;SDS011;19030;49.478;8.986;2022-09-24T05:47:33;7.88;;;5.15;;
32611;SDS011;19030;49.478;8.986;2022-09-24T05:49:33;7.90;;;4.38;;
32611;SDS011;19030;49.478;8.986;2022-09-24T05:51:34;7.90;;;4.88;;
32611;SDS011;19030;49.478;8.986;2022-09-24T05:53:35;8.75;;;5.15;;
32611;SDS011;19030;49.478;8.986;2022-09-24T05:55:35;7.22;;;4.80;;
32611;SDS011;19030;49.478;8.986;2022-09-24T05:57:36;8.65;;;4.90;;
32611;SDS011;19030;49.478;8.986;2022-09-24T05:59:37;9.48;;;4.85;;
32611;SDS011;19030;49.478;8.986;2022-09-24T06:01:37;8.52;;;4.90;;
32611;SDS011;19030;49.478;8.986;2022-09-24T06:03:38;8.05;;;4.60;;
32611;SDS011;19030;49.478;8.986;2022-09-24T06:05:42;8.07;;;4.40;;
32611;SDS011;19030;49.478;8.986;2022-09-24T06:07:45;14.77;;;5.32;;
32611;SDS011;19030;49.478;8.986;2022-09-24T06:09:45;10.40;;;4.90;;
32611;SDS011;19030;49.478;8.986;2022-09-24T06:11:46;7.90;;;4.70;;
32611;SDS011;19030;49.478;8.986;2022-09-24T06:13:50;9.57;;;5.38;;
32611;SDS011;19030;49.478;8.986;2022-09-24T06:15:50;11.02;;;5.55;;
32611;SDS011;19030;49.478;8.986;2022-09-24T06:17:54;10.10;;;6.57;;
32611;SDS011;19030;49.478;8.986;2022-09-24T06:19:55;9.65;;;5.97;;
32611;SDS011;19030;49.478;8.986;2022-09-24T06:21:56;10.63;;;6.70;;
32611;SDS011;19030;49.478;8.986;2022-09-24T06:23:57;10.50;;;5.60;;
32611;SDS011;19030;49.478;8.986;2022-09-24T06:25:58;9.98;;;6.63;;
32611;SDS011;19030;49.478;8.986;2022-09-24T06:27:59;9.90;;;7.78;;
32611;SDS011;19030;49.478;8.986;2022-09-24T06:30:02;12.02;;;9.13;;
32611;SDS011;19030;49.478;8.986;2022-09-24T06:32:03;9.48;;;5.28;;
32611;SDS011;19030;49.478;8.986;2022-09-24T06:34:04;8.93;;;5.07;;
32611;SDS011;19030;49.478;8.986;2022-09-24T06:36:08;8.80;;;5.20;;
32611;SDS011;19030;49.478;8.986;2022-09-24T06:38:09;8.38;;;4.68;;
32611;SDS011;19030;49.478;8.986;2022-09-24T06:40:12;10.98;;;5.30;;
32611;SDS011;19030;49.478;8.986;2022-09-24T06:42:12;8.30;;;4.95;;
32611;SDS011;19030;49.478;8.986;2022-09-24T06:44:13;8.40;;;4.55;;
32611;SDS011;19030;49.478;8.986;2022-09-24T06:46:14;8.10;;;5.30;;
32611;SDS011;19030;49.478;8.986;2022-09-24T06:48:14;8.10;;;5.13;;
32611;SDS011;19030;49.478;8.986;2022-09-24T06:50:15;8.55;;;5.30;;
32611;SDS011;19030;49.478;8.986;2022-09-24T06:52:15;8.85;;;5.28;;
32611;SDS011;19030;49.478;8.986;2022-09-24T06:54:16;10.98;;;6.90;;
32611;SDS011;19030;49.478;8.986;2022-09-24T06:56:16;8.20;;;5.05;;
32611;SDS011;19030;49.478;8.986;2022-09-24T06:58:18;9.32;;;5.00;;
32611;SDS011;19030;49.478;8.986;2022-09-24T07:00:19;7.30;;;4.78;;
32611;SDS011;19030;49.478;8.986;2022-09-24T07:02:20;8.05;;;5.20;;
32611;SDS011;19030;49.478;8.986;2022-09-24T07:04:20;11.07;;;5.65;;
32611;SDS011;19030;49.478;8.986;2022-09-24T07:06:21;10.65;;;5.50;;
32611;SDS011;19030;49.478;8.986;2022-09-24T07:08:22;9.35;;;5.10;;
32611;SDS011;19030;49.478;8.986;2022-09-24T07:10:22;6.70;;;4.40;;
32611;SDS011;19030;49.478;8.986;2022-09-24T07:12:24;9.70;;;3.92;;
32611;SDS011;19030;49.478;8.986;2022-09-24T07:14:24;7.15;;;4.20;;
32611;SDS011;19030;49.478;8.986;2022-09-24T07:16:25;8.23;;;5.03;;
32611;SDS011;19030;49.478;8.986;2022-09-24T07:18:25;9.27;;;4.82;;
32611;SDS011;19030;49.478;8.986;2022-09-24T07:20:26;11.60;;;4.80;;
32611;SDS011;19030;49.478;8.986;2022-09-24T07:22:27;9.18;;;4.35;;
32611;SDS011;19030;49.478;8.986;2022-09-24T07:24:28;8.20;;;4.70;;
32611;SDS011;19030;49.478;8.986;2022-09-24T07:26:28;6.40;;;4.20;;
32611;SDS011;19030;49.478;8.986;2022-09-24T07:28:29;6.65;;;3.80;;
32611;SDS011;19030;49.478;8.986;2022-09-24T07:30:31;7.88;;;3.72;;
32611;SDS011;19030;49.478;8.986;2022-09-24T07:32:33;8.85;;;4.47;;
32611;SDS011;19030;49.478;8.986;2022-09-24T07:34:33;8.18;;;5.28;;
32611;SDS011;19030;49.478;8.986;2022-09-24T07:36:34;6.70;;;4.05;;
32611;SDS011;19030;49.478;8.986;2022-09-24T07:38:34;8.38;;;3.90;;
32611;SDS011;19030;49.478;8.986;2022-09-24T07:40:35;9.75;;;4.60;;
32611;SDS011;19030;49.478;8.986;2022-09-24T07:42:36;9.10;;;4.25;;
32611;SDS011;19030;49.478;8.986;2022-09-24T07:44:38;10.40;;;4.40;;
32611;SDS011;19030;49.478;8.986;2022-09-24T07:46:38;10.82;;;4.63;;
32611;SDS011;19030;49.478;8.986;2022-09-24T07:48:39;7.60;;;4.28;;
32611;SDS011;19030;49.478;8.986;2022-09-24T07:50:40;6.68;;;3.90;;
32611;SDS011;19030;49.478;8.986;2022-09-24T07:52:41;7.30;;;4.70;;
32611;SDS011;19030;49.478;8.986;2022-09-24T07:54:42;9.07;;;4.28;;
32611;SDS011;19030;49.478;8.986;2022-09-24T07:56:42;7.50;;;4.50;;
32611;SDS011;19030;49.478;8.986;2022-09-24T07:58:43;8.73;;;4.53;;
32611;SDS011;19030;49.478;8.986;2022-09-24T08:00:43;8.65;;;5.47;;
32611;SDS011;19030;49.478;8.986;2022-09-24T08:02:44;7.45;;;4.35;;
32611;SDS011;19030;49.478;8.986;2022-09-24T08:04:46;7.57;;;4.15;;
32611;SDS011;19030;49.478;8.986;2022-09-24T08:06:48;6.65;;;4.03;;
32611;SDS011;19030;49.478;8.986;2022-09-24T08:08:48;8.52;;;4.03;;
32611;SDS011;19030;49.478;8.986;2022-09-24T08:10:51;10.02;;;4.65;;
32611;SDS011;19030;49.478;8.986;2022-09-24T08:12:52;10.05;;;4.72;;
32611;SDS011;19030;49.478;8.986;2022-09-24T08:14:55;7.78;;;4.22;;
32611;SDS011;19030;49.478;8.986;2022-09-24T08:16:56;7.80;;;4.50;;
32611;SDS011;19030;49.478;8.986;2022-09-24T08:18:56;6.53;;;3.80;;
32611;SDS011;19030;49.478;8.986;2022-09-24T08:20:58;6.93;;;4.32;;
32611;SDS011;19030;49.478;8.986;2022-09-24T08:23:03;8.93;;;4.15;;
32611;SDS011;19030;49.478;8.986;2022-09-24T08:25:05;9.00;;;4.68;;
32611;SDS011;19030;49.478;8.986;2022-09-24T08:27:06;7.05;;;4.10;;
32611;SDS011;19030;49.478;8.986;2022-09-24T08:29:07;6.05;;;3.97;;
32611;SDS011;19030;49.478;8.986;2022-09-24T08:31:10;7.97;;;4.40;;
32611;SDS011;19030;49.478;8.986;2022-09-24T08:33:11;8.50;;;4.20;;
32611;SDS011;19030;49.478;8.986;2022-09-24T08:35:12;7.93;;;4.38;;
32611;SDS011;19030;49.478;8.986;2022-09-24T08:37:14;9.40;;;4.20;;
32611;SDS011;19030;49.478;8.986;2022-09-24T08:39:15;10.15;;;4.50;;
32611;SDS011;19030;49.478;8.986;2022-09-24T08:43:49;9.82;;;5.43;;
32611;SDS011;19030;49.478;8.986;2022-09-24T08:45:58;8.40;;;5.35;;
32611;SDS011;19030;49.478;8.986;2022-09-24T08:48:19;9.45;;;5.50;;
32611;SDS011;19030;49.478;8.986;2022-09-24T08:50:27;10.88;;;4.85;;
32611;SDS011;19030;49.478;8.986;2022-09-24T08:52:43;7.38;;;4.63;;
32611;SDS011;19030;49.478;8.986;2022-09-24T08:55:06;8.07;;;4.82;;
32611;SDS011;19030;49.478;8.986;2022-09-24T08:57:13;10.63;;;4.55;;
32611;SDS011;19030;49.478;8.986;2022-09-24T08:59:24;7.80;;;4.70;;
32611;SDS011;19030;49.478;8.986;2022-09-24T09:01:44;9.82;;;5.05;;
32611;SDS011;19030;49.478;8.986;2022-09-24T09:03:52;7.35;;;4.40;;
32611;SDS011;19030;49.478;8.986;2022-09-24T09:11:19;11.05;;;5.05;;
32611;SDS011;19030;49.478;8.986;2022-09-24T09:13:24;10.43;;;5.40;;
32611;SDS011;19030;49.478;8.986;2022-09-24T09:15:35;9.85;;;5.30;;
32611;SDS011;19030;49.478;8.986;2022-09-24T09:20:00;9.50;;;5.20;;
32611;SDS011;19030;49.478;8.986;2022-09-24T09:22:06;9.25;;;4.70;;
32611;SDS011;19030;49.478;8.986;2022-09-24T09:24:14;10.75;;;4.97;;
32611;SDS011;19030;49.478;8.986;2022-09-24T09:26:17;14.40;;;5.00;;
32611;SDS011;19030;49.478;8.986;2022-09-24T09:28:19;9.95;;;5.35;;
32611;SDS011;19030;49.478;8.986;2022-09-24T09:30:20;11.20;;;6.35;;
32611;SDS011;19030;49.478;8.986;2022-09-24T09:35:03;10.20;;;5.68;;
32611;SDS011;19030;49.478;8.986;2022-09-24T09:44:19;9.73;;;6.10;;
32611;SDS011;19030;49.478;8.986;2022-09-24T09:46:26;12.50;;;6.70;;
32611;SDS011;19030;49.478;8.986;2022-09-24T09:48:45;13.20;;;6.13;;
32611;SDS011;19030;49.478;8.986;2022-09-24T09:50:50;8.95;;;5.20;;
32611;SDS011;19030;49.478;8.986;2022-09-24T09:52:54;9.18;;;5.45;;
32611;SDS011;19030;49.478;8.986;2022-09-24T09:54:55;8.32;;;5.93;;
32611;SDS011;19030;49.478;8.986;2022-09-24T09:56:56;8.35;;;5.32;;
32611;SDS011;19030;49.478;8.986;2022-09-24T09:59:06;9.20;;;6.20;;
32611;SDS011;19030;49.478;8.986;2022-09-24T10:01:12;9.63;;;5.88;;
32611;SDS011;19030;49.478;8.986;2022-09-24T10:03:28;12.75;;;6.65;;
32611;SDS011;19030;49.478;8.986;2022-09-24T10:05:30;10.25;;;6.72;;
32611;SDS011;19030;49.478;8.986;2022-09-24T10:07:31;14.07;;;6.85;;
32611;SDS011;19030;49.478;8.986;2022-09-24T10:09:44;13.18;;;6.68;;
32611;SDS011;19030;49.478;8.986;2022-09-24T10:11:45;10.88;;;6.47;;
32611;SDS011;19030;49.478;8.986;2022-09-24T10:13:46;9.55;;;5.97;;
32611;SDS011;19030;49.478;8.986;2022-09-24T10:16:02;15.05;;;6.30;;
32611;SDS011;19030;49.478;8.986;2022-09-24T10:18:04;9.93;;;5.57;;
32611;SDS011;19030;49.478;8.986;2022-09-24T10:20:23;11.95;;;6.40;;
32611;SDS011;19030;49.478;8.986;2022-09-24T10:22:26;11.65;;;6.13;;
32611;SDS011;19030;49.478;8.986;2022-09-24T10:24:28;12.07;;;6.43;;
32611;SDS011;19030;49.478;8.986;2022-09-24T10:26:36;10.13;;;6.25;;
32611;SDS011;19030;49.478;8.986;2022-09-24T10:28:38;10.75;;;6.25;;
32611;SDS011;19030;49.478;8.986;2022-09-24T10:31:20;10.13;;;6.07;;
32611;SDS011;19030;49.478;8.986;2022-09-24T10:35:36;12.77;;;5.80;;
32611;SDS011;19030;49.478;8.986;2022-09-24T10:37:37;11.05;;;6.80;;
32611;SDS011;19030;49.478;8.986;2022-09-24T10:39:58;9.35;;;6.00;;
32611;SDS011;19030;49.478;8.986;2022-09-24T10:42:24;12.70;;;7.05;;
32611;SDS011;19030;49.478;8.986;2022-09-24T10:44:33;12.45;;;7.97;;
32611;SDS011;19030;49.478;8.986;2022-09-24T10:46:39;11.48;;;6.60;;
32611;SDS011;19030;49.478;8.986;2022-09-24T10:53:42;12.23;;;7.10;;
32611;SDS011;19030;49.478;8.986;2022-09-24T10:56:03;12.48;;;7.35;;
32611;SDS011;19030;49.478;8.986;2022-09-24T10:58:34;10.43;;;6.60;;
32611;SDS011;19030;49.478;8.986;2022-09-24T11:05:21;12.00;;;7.10;;
32611;SDS011;19030;49.478;8.986;2022-09-24T11:12:37;11.10;;;6.95;;
32611;SDS011;19030;49.478;8.986;2022-09-24T11:14:54;9.88;;;6.45;;
32611;SDS011;19030;49.478;8.986;2022-09-24T11:19:53;11.70;;;6.57;;
32611;SDS011;19030;49.478;8.986;2022-09-24T11:22:08;13.68;;;7.28;;
32611;SDS011;19030;49.478;8.986;2022-09-24T11:24:20;15.85;;;6.82;;
32611;SDS011;19030;49.478;8.986;2022-09-24T11:26:34;11.80;;;6.30;;
32611;SDS011;19030;49.478;8.986;2022-09-24T11:29:00;9.68;;;5.68;;
32611;SDS011;19030;49.478;8.986;2022-09-24T11:33:27;8.68;;;4.72;;
32611;SDS011;19030;49.478;8.986;2022-09-24T11:37:59;7.88;;;4.90;;
32611;SDS011;19030;49.478;8.986;2022-09-24T11:42:42;9.53;;;5.57;;
32611;SDS011;19030;49.478;8.986;2022-09-24T11:47:35;8.82;;;4.63;;
32611;SDS011;19030;49.478;8.986;2022-09-24T11:49:47;7.70;;;4.68;;
32611;SDS011;19030;49.478;8.986;2022-09-24T11:52:22;9.68;;;5.43;;
32611;SDS011;19030;49.478;8.986;2022-09-24T11:54:33;8.13;;;5.47;;
32611;SDS011;19030;49.478;8.986;2022-09-24T11:56:40;11.73;;;4.78;;
32611;SDS011;19030;49.478;8.986;2022-09-24T11:59:11;12.27;;;4.70;;
32611;SDS011;19030;49.478;8.986;2022-09-24T12:01:28;9.15;;;4.82;;
32611;SDS011;19030;49.478;8.986;2022-09-24T12:05:40;9.57;;;5.30;;
32611;SDS011;19030;49.478;8.986;2022-09-24T12:07:48;9.85;;;5.10;;
32611;SDS011;19030;49.478;8.986;2022-09-24T12:09:58;7.25;;;4.97;;
32611;SDS011;19030;49.478;8.986;2022-09-24T12:12:22;8.48;;;5.13;;
32611;SDS011;19030;49.478;8.986;2022-09-24T12:14:28;12.88;;;5.03;;
32611;SDS011;19030;49.478;8.986;2022-09-24T12:16:44;8.88;;;4.50;;
32611;SDS011;19030;49.478;8.986;2022-09-24T12:18:50;7.20;;;4.38;;
32611;SDS011;19030;49.478;8.986;2022-09-24T12:20:58;9.20;;;4.95;;
32611;SDS011;19030;49.478;8.986;2022-09-24T12:23:11;10.07;;;4.07;;
32611;SDS011;19030;49.478;8.986;2022-09-24T12:25:16;7.75;;;4.50;;
32611;SDS011;19030;49.478;8.986;2022-09-24T12:27:21;6.75;;;4.22;;
32611;SDS011;19030;49.478;8.986;2022-09-24T12:38:54;8.23;;;4.63;;
32611;SDS011;19030;49.478;8.986;2022-09-24T12:43:36;8.48;;;4.68;;
32611;SDS011;19030;49.478;8.986;2022-09-24T12:45:39;9.55;;;4.63;;
32611;SDS011;19030;49.478;8.986;2022-09-24T12:47:44;9.65;;;4.90;;
32611;SDS011;19030;49.478;8.986;2022-09-24T12:49:48;6.97;;;4.88;;
32611;SDS011;19030;49.478;8.986;2022-09-24T12:51:56;10.38;;;4.95;;
32611;SDS011;19030;49.478;8.986;2022-09-24T12:54:05;9.70;;;4.90;;
32611;SDS011;19030;49.478;8.986;2022-09-24T12:56:08;10.13;;;4.65;;
32611;SDS011;19030;49.478;8.986;2022-09-24T12:58:29;7.30;;;4.43;;
32611;SDS011;19030;49.478;8.986;2022-09-24T13:02:46;9.68;;;4.50;;
32611;SDS011;19030;49.478;8.986;2022-09-24T13:07:35;7.90;;;4.57;;
32611;SDS011;19030;49.478;8.986;2022-09-24T13:09:38;9.02;;;4.10;;
32611;SDS011;19030;49.478;8.986;2022-09-24T13:11:40;8.10;;;4.70;;
32611;SDS011;19030;49.478;8.986;2022-09-24T13:13:40;8.93;;;4.50;;
32611;SDS011;19030;49.478;8.986;2022-09-24T13:15:43;8.25;;;4.80;;
32611;SDS011;19030;49.478;8.986;2022-09-24T13:17:44;10.75;;;4.70;;
32611;SDS011;19030;49.478;8.986;2022-09-24T13:19:46;12.77;;;4.95;;
32611;SDS011;19030;49.478;8.986;2022-09-24T13:21:51;12.30;;;4.53;;
32611;SDS011;19030;49.478;8.986;2022-09-24T13:23:54;7.85;;;4.35;;
32611;SDS011;19030;49.478;8.986;2022-09-24T13:28:18;8.63;;;4.28;;
32611;SDS011;19030;49.478;8.986;2022-09-24T13:30:33;8.70;;;4.32;;
32611;SDS011;19030;49.478;8.986;2022-09-24T13:32:48;6.35;;;3.47;;
32611;SDS011;19030;49.478;8.986;2022-09-24T13:34:58;7.70;;;4.00;;
32611;SDS011;19030;49.478;8.986;2022-09-24T13:37:09;7.78;;;4.80;;
32611;SDS011;19030;49.478;8.986;2022-09-24T13:41:39;7.55;;;4.30;;
32611;SDS011;19030;49.478;8.986;2022-09-24T13:43:58;7.22;;;4.35;;
32611;SDS011;19030;49.478;8.986;2022-09-24T13:46:18;7.20;;;4.05;;
32611;SDS011;19030;49.478;8.986;2022-09-24T13:50:37;12.07;;;4.30;;
32611;SDS011;19030;49.478;8.986;2022-09-24T13:52:53;9.52;;;4.28;;
32611;SDS011;19030;49.478;8.986;2022-09-24T13:54:57;8.07;;;4.82;;
32611;SDS011;19030;49.478;8.986;2022-09-24T13:57:42;8.02;;;4.45;;
32611;SDS011;19030;49.478;8.986;2022-09-24T13:59:41;8.60;;;4.40;;